createdAt,value
2018-09-18T01:31:35.223Z,1012.69
2018-09-18T01:31:35.724Z,1012.69
2018-09-18T01:31:36.323Z,1012.73
2018-09-18T01:31:36.924Z,1012.72
2018-09-18T01:31:37.523Z,1012.70
2018-09-18T01:31:38.124Z,1012.69
2018-09-18T01:31:38.721Z,1012.67
2018-09-18T01:32:33.184Z,1012.71
2018-09-18T01:32:33.782Z,1012.70
2018-09-18T01:32:34.379Z,1012.68
2018-09-18T01:32:34.981Z,1012.70
2018-09-18T01:32:35.580Z,1012.71
2018-09-18T01:32:36.179Z,1012.69
2018-09-18T01:32:36.783Z,1012.72
2018-09-18T01:33:50.805Z,1012.69
2018-09-18T01:33:51.400Z,1012.70
2018-09-18T01:33:52.001Z,1012.70
2018-09-18T01:33:52.600Z,1012.70
2018-09-18T01:33:53.199Z,1012.75
2018-09-18T01:33:53.798Z,1012.69
2018-09-18T01:33:54.400Z,1012.71
2018-09-18T01:34:48.457Z,1012.69
2018-09-18T01:34:49.054Z,1012.70
2018-09-18T01:34:49.652Z,1012.72
2018-09-18T01:34:50.252Z,1012.67
2018-09-18T01:34:50.851Z,1012.70
2018-09-18T01:34:51.452Z,1012.69
2018-09-18T01:34:52.053Z,1012.71
2018-09-18T01:35:46.109Z,1012.66
2018-09-18T01:35:46.705Z,1012.70
2018-09-18T01:35:47.305Z,1012.67
2018-09-18T01:35:47.904Z,1012.68
2018-09-18T01:35:48.504Z,1012.68
2018-09-18T01:35:49.105Z,1012.70
2018-09-18T01:35:49.705Z,1012.68
2018-09-18T01:36:43.782Z,1012.69
2018-09-18T01:36:44.359Z,1012.68
2018-09-18T01:36:44.958Z,1012.69
2018-09-18T01:36:45.557Z,1012.68
2018-09-18T01:36:46.161Z,1012.67
2018-09-18T01:36:46.756Z,1012.67
2018-09-18T01:36:47.361Z,1012.70
2018-09-18T01:37:41.412Z,1012.68
2018-09-18T01:37:42.009Z,1012.64
2018-09-18T01:37:42.608Z,1012.68
2018-09-18T01:37:43.209Z,1012.66
2018-09-18T01:37:43.809Z,1012.67
2018-09-18T01:37:44.407Z,1012.65
2018-09-18T01:37:45.008Z,1012.69
2018-09-18T01:38:39.064Z,1012.67
2018-09-18T01:38:39.662Z,1012.68
2018-09-18T01:38:40.262Z,1012.70
2018-09-18T01:38:40.862Z,1012.67
2018-09-18T01:38:41.462Z,1012.68
2018-09-18T01:38:42.062Z,1012.66
2018-09-18T01:38:42.661Z,1012.67
2018-09-18T01:39:36.717Z,1012.69
2018-09-18T01:39:37.313Z,1012.69
2018-09-18T01:39:37.913Z,1012.71
2018-09-18T01:39:38.513Z,1012.71
2018-09-18T01:39:39.113Z,1012.70
2018-09-18T01:39:39.716Z,1012.70
2018-09-18T01:39:40.314Z,1012.70
2018-09-18T01:40:34.367Z,1012.67
2018-09-18T01:40:34.966Z,1012.66
2018-09-18T01:40:35.565Z,1012.70
2018-09-18T01:40:36.165Z,1012.66
2018-09-18T01:40:36.769Z,1012.68
2018-09-18T01:40:37.364Z,1012.73
2018-09-18T01:40:37.965Z,1012.67
2018-09-18T01:41:32.043Z,1012.68
2018-09-18T01:41:32.617Z,1012.68
2018-09-18T01:41:33.217Z,1012.67
2018-09-18T01:41:33.817Z,1012.69
2018-09-18T01:41:34.415Z,1012.69
2018-09-18T01:41:35.017Z,1012.68
2018-09-18T01:41:35.618Z,1012.66
2018-09-18T01:42:29.676Z,1012.69
2018-09-18T01:42:30.301Z,1012.71
2018-09-18T01:42:30.912Z,1012.70
2018-09-18T01:42:31.510Z,1012.71
2018-09-18T01:42:32.070Z,1012.69
2018-09-18T01:42:32.669Z,1012.66
2018-09-18T01:42:33.273Z,1012.71
2018-09-18T01:43:39.015Z,1012.72
2018-09-18T01:43:39.629Z,1012.69
2018-09-18T01:43:40.226Z,1012.68
2018-09-18T01:43:40.797Z,1012.69
2018-09-18T01:43:41.403Z,1012.68
2018-09-18T01:43:42.013Z,1012.71
2018-09-18T01:43:42.600Z,1012.72
2018-09-18T01:44:36.648Z,1012.70
2018-09-18T01:44:37.247Z,1012.70
2018-09-18T01:44:37.846Z,1012.67
2018-09-18T01:44:38.446Z,1012.71
2018-09-18T01:44:39.047Z,1012.69
2018-09-18T01:44:39.646Z,1012.72
2018-09-18T01:44:40.246Z,1012.66
2018-09-18T01:45:34.302Z,1012.71
2018-09-18T01:45:34.899Z,1012.70
2018-09-18T01:45:35.499Z,1012.70
2018-09-18T01:45:36.098Z,1012.70
2018-09-18T01:45:36.699Z,1012.70
2018-09-18T01:45:37.297Z,1012.73
2018-09-18T01:45:37.896Z,1012.71
2018-09-18T01:46:31.974Z,1012.70
2018-09-18T01:46:32.550Z,1012.69
2018-09-18T01:46:33.149Z,1012.71
2018-09-18T01:46:33.750Z,1012.72
2018-09-18T01:46:34.349Z,1012.73
2018-09-18T01:46:34.950Z,1012.72
2018-09-18T01:46:35.549Z,1012.75
2018-09-18T01:47:29.604Z,1012.69
2018-09-18T01:47:30.204Z,1012.70
2018-09-18T01:47:30.802Z,1012.71
2018-09-18T01:47:31.403Z,1012.71
2018-09-18T01:47:32.001Z,1012.69
2018-09-18T01:47:32.602Z,1012.73
2018-09-18T01:47:33.201Z,1012.73
2018-09-18T01:48:27.257Z,1012.72
2018-09-18T01:48:27.853Z,1012.70
2018-09-18T01:48:28.453Z,1012.68
2018-09-18T01:48:29.053Z,1012.69
2018-09-18T01:48:29.653Z,1012.70
2018-09-18T01:48:30.252Z,1012.70
2018-09-18T01:48:30.852Z,1012.70
2018-09-18T01:49:24.907Z,1012.70
2018-09-18T01:49:25.508Z,1012.68
2018-09-18T01:49:26.111Z,1012.68
2018-09-18T01:49:26.705Z,1012.71
2018-09-18T01:49:27.305Z,1012.70
2018-09-18T01:49:27.905Z,1012.68
2018-09-18T01:49:28.506Z,1012.65
2018-09-18T01:50:22.562Z,1012.71
2018-09-18T01:50:23.160Z,1012.70
2018-09-18T01:50:23.757Z,1012.71
2018-09-18T01:50:24.356Z,1012.72
2018-09-18T01:50:24.959Z,1012.71
2018-09-18T01:50:25.554Z,1012.70
2018-09-18T01:50:26.155Z,1012.69
2018-09-18T01:51:20.235Z,1012.73
2018-09-18T01:51:20.811Z,1012.75
2018-09-18T01:51:21.410Z,1012.71
2018-09-18T01:51:22.009Z,1012.71
2018-09-18T01:51:22.608Z,1012.72
2018-09-18T01:51:23.209Z,1012.73
2018-09-18T01:51:23.808Z,1012.68
2018-09-18T01:52:17.862Z,1012.71
2018-09-18T01:52:18.460Z,1012.71
2018-09-18T01:52:19.060Z,1012.69
2018-09-18T01:52:19.661Z,1012.70
2018-09-18T01:52:20.263Z,1012.70
2018-09-18T01:52:20.860Z,1012.68
2018-09-18T01:52:21.459Z,1012.67
2018-09-18T01:53:15.514Z,1012.70
2018-09-18T01:53:16.116Z,1012.70
2018-09-18T01:53:16.712Z,1012.71
2018-09-18T01:53:17.312Z,1012.69
2018-09-18T01:53:17.911Z,1012.66
2018-09-18T01:53:18.510Z,1012.71
2018-09-18T01:53:19.111Z,1012.70
2018-09-18T01:54:13.167Z,1012.71
2018-09-18T01:54:13.764Z,1012.69
2018-09-18T01:54:14.363Z,1012.71
2018-09-18T01:54:14.963Z,1012.70
2018-09-18T01:54:15.563Z,1012.65
2018-09-18T01:54:16.163Z,1012.68
2018-09-18T01:54:16.764Z,1012.71
2018-09-18T01:55:10.818Z,1012.67
2018-09-18T01:55:11.417Z,1012.68
2018-09-18T01:55:12.016Z,1012.68
2018-09-18T01:55:12.615Z,1012.68
2018-09-18T01:55:13.216Z,1012.70
2018-09-18T01:55:13.816Z,1012.65
2018-09-18T01:55:14.416Z,1012.66
2018-09-18T01:56:08.494Z,1012.72
2018-09-18T01:56:09.068Z,1012.70
2018-09-18T01:56:09.666Z,1012.70
2018-09-18T01:56:10.267Z,1012.67
2018-09-18T01:56:10.867Z,1012.69
2018-09-18T01:56:11.467Z,1012.68
2018-09-18T01:56:12.066Z,1012.66
2018-09-18T01:57:06.123Z,1012.69
2018-09-18T01:57:06.720Z,1012.68
2018-09-18T01:57:07.319Z,1012.72
2018-09-18T01:57:07.918Z,1012.70
2018-09-18T01:57:08.520Z,1012.68
2018-09-18T01:57:09.118Z,1012.69
2018-09-18T01:57:09.718Z,1012.70
2018-09-18T01:58:03.773Z,1012.73
2018-09-18T01:58:04.373Z,1012.71
2018-09-18T01:58:04.971Z,1012.70
2018-09-18T01:58:05.571Z,1012.71
2018-09-18T01:58:06.172Z,1012.72
2018-09-18T01:58:06.771Z,1012.72
2018-09-18T01:58:07.371Z,1012.72
2018-09-18T01:59:01.426Z,1012.70
2018-09-18T01:59:02.023Z,1012.72
2018-09-18T01:59:02.623Z,1012.72
2018-09-18T01:59:03.223Z,1012.68
2018-09-18T01:59:03.825Z,1012.73
2018-09-18T01:59:04.422Z,1012.74
2018-09-18T01:59:05.022Z,1012.70
2018-09-18T01:59:59.082Z,1012.73
2018-09-18T01:59:59.676Z,1012.72
2018-09-18T02:00:00.273Z,1012.76
2018-09-18T02:00:00.875Z,1012.71
2018-09-18T02:00:01.477Z,1012.76
2018-09-18T02:00:02.074Z,1012.75
2018-09-18T02:00:02.676Z,1012.76
2018-09-18T02:00:56.729Z,1012.70
2018-09-18T02:00:57.327Z,1012.68
2018-09-18T02:00:57.928Z,1012.75
2018-09-18T02:00:58.526Z,1012.72
2018-09-18T02:00:59.128Z,1012.70
2018-09-18T02:00:59.726Z,1012.74
2018-09-18T02:01:00.326Z,1012.72
2018-09-18T02:01:54.404Z,1012.74
2018-09-18T02:01:54.978Z,1012.73
2018-09-18T02:01:55.580Z,1012.71
2018-09-18T02:01:56.178Z,1012.73
2018-09-18T02:01:56.782Z,1012.69
2018-09-18T02:01:57.377Z,1012.73
2018-09-18T02:01:57.977Z,1012.70
2018-09-18T02:02:52.034Z,1012.72
2018-09-18T02:02:52.632Z,1012.71
2018-09-18T02:02:53.231Z,1012.70
2018-09-18T02:02:53.829Z,1012.72
2018-09-18T02:02:54.430Z,1012.72
2018-09-18T02:02:55.030Z,1012.72
2018-09-18T02:02:55.630Z,1012.72
2018-09-18T02:03:49.685Z,1012.71
2018-09-18T02:03:50.284Z,1012.71
2018-09-18T02:03:50.885Z,1012.74
2018-09-18T02:03:51.480Z,1012.72
2018-09-18T02:03:52.081Z,1012.73
2018-09-18T02:03:52.679Z,1012.70
2018-09-18T02:03:53.280Z,1012.72
2018-09-18T02:04:47.340Z,1012.69
2018-09-18T02:04:47.933Z,1012.69
2018-09-18T02:04:48.534Z,1012.72
2018-09-18T02:04:49.133Z,1012.68
2018-09-18T02:04:49.733Z,1012.70
2018-09-18T02:04:50.336Z,1012.71
2018-09-18T02:04:50.933Z,1012.70
2018-09-18T02:05:44.988Z,1012.74
2018-09-18T02:05:45.586Z,1012.75
2018-09-18T02:05:46.185Z,1012.73
2018-09-18T02:05:46.787Z,1012.74
2018-09-18T02:05:47.385Z,1012.72
2018-09-18T02:05:47.988Z,1012.74
2018-09-18T02:05:48.585Z,1012.72
2018-09-18T02:06:42.662Z,1012.72
2018-09-18T02:06:43.237Z,1012.74
2018-09-18T02:06:43.836Z,1012.73
2018-09-18T02:06:44.436Z,1012.72
2018-09-18T02:06:45.037Z,1012.72
2018-09-18T02:06:45.635Z,1012.74
2018-09-18T02:06:46.236Z,1012.75
2018-09-18T02:07:40.291Z,1012.72
2018-09-18T02:07:40.889Z,1012.71
2018-09-18T02:07:41.489Z,1012.73
2018-09-18T02:07:42.089Z,1012.73
2018-09-18T02:07:42.688Z,1012.73
2018-09-18T02:07:43.288Z,1012.77
2018-09-18T02:07:43.888Z,1012.71
2018-09-18T02:08:37.943Z,1012.74
2018-09-18T02:08:38.540Z,1012.74
2018-09-18T02:08:39.140Z,1012.75
2018-09-18T02:08:39.740Z,1012.72
2018-09-18T02:08:40.339Z,1012.72
2018-09-18T02:08:40.940Z,1012.71
2018-09-18T02:08:41.539Z,1012.71
2018-09-18T02:09:36.569Z,1012.77
2018-09-18T02:09:37.084Z,1012.78
2018-09-18T02:09:37.210Z,1012.74
2018-09-18T02:09:37.665Z,1012.77
2018-09-18T02:09:38.264Z,1012.77
2018-09-18T02:09:38.863Z,1012.73
2018-09-18T02:09:39.463Z,1012.74
2018-09-18T02:10:33.450Z,1012.76
2018-09-18T02:10:34.049Z,1012.75
2018-09-18T02:10:34.649Z,1012.73
2018-09-18T02:10:35.248Z,1012.74
2018-09-18T02:10:35.847Z,1012.73
2018-09-18T02:10:36.451Z,1012.75
2018-09-18T02:10:37.048Z,1012.69
2018-09-18T02:11:31.132Z,1012.71
2018-09-18T02:11:31.701Z,1012.72
2018-09-18T02:11:32.302Z,1012.73
2018-09-18T02:11:32.900Z,1012.75
2018-09-18T02:11:33.500Z,1012.73
2018-09-18T02:11:34.100Z,1012.75
2018-09-18T02:11:34.700Z,1012.74
2018-09-18T02:12:28.756Z,1012.75
2018-09-18T02:12:29.351Z,1012.72
2018-09-18T02:12:29.953Z,1012.75
2018-09-18T02:12:30.552Z,1012.73
2018-09-18T02:12:31.151Z,1012.74
2018-09-18T02:12:31.754Z,1012.73
2018-09-18T02:12:32.351Z,1012.75
2018-09-18T02:13:26.407Z,1012.70
2018-09-18T02:13:27.003Z,1012.72
2018-09-18T02:13:27.605Z,1012.70
2018-09-18T02:13:28.203Z,1012.73
2018-09-18T02:13:28.803Z,1012.73
2018-09-18T02:13:29.403Z,1012.73
2018-09-18T02:13:30.004Z,1012.74
2018-09-18T02:14:24.059Z,1012.72
2018-09-18T02:14:24.655Z,1012.71
2018-09-18T02:14:25.255Z,1012.72
2018-09-18T02:14:25.855Z,1012.69
2018-09-18T02:14:26.458Z,1012.74
2018-09-18T02:14:27.054Z,1012.73
2018-09-18T02:14:27.654Z,1012.73
2018-09-18T02:15:21.711Z,1012.67
2018-09-18T02:15:22.314Z,1012.72
2018-09-18T02:15:22.907Z,1012.74
2018-09-18T02:15:23.509Z,1012.73
2018-09-18T02:15:24.108Z,1012.73
2018-09-18T02:15:24.707Z,1012.70
2018-09-18T02:15:25.310Z,1012.74
2018-09-18T02:16:19.360Z,1012.75
2018-09-18T02:16:19.960Z,1012.73
2018-09-18T02:16:20.560Z,1012.75
2018-09-18T02:16:21.160Z,1012.70
2018-09-18T02:16:21.758Z,1012.69
2018-09-18T02:16:22.359Z,1012.74
2018-09-18T02:16:22.959Z,1012.73
2018-09-18T02:17:17.041Z,1012.70
2018-09-18T02:17:17.609Z,1012.68
2018-09-18T02:17:18.208Z,1012.70
2018-09-18T02:17:18.809Z,1012.73
2018-09-18T02:17:19.412Z,1012.71
2018-09-18T02:17:20.007Z,1012.71
2018-09-18T02:17:20.608Z,1012.71
2018-09-18T02:18:14.665Z,1012.70
2018-09-18T02:18:15.263Z,1012.68
2018-09-18T02:18:15.862Z,1012.65
2018-09-18T02:18:16.463Z,1012.69
2018-09-18T02:18:17.062Z,1012.74
2018-09-18T02:18:17.662Z,1012.70
2018-09-18T02:18:18.262Z,1012.72
2018-09-18T02:19:12.315Z,1012.70
2018-09-18T02:19:12.914Z,1012.70
2018-09-18T02:19:13.514Z,1012.74
2018-09-18T02:19:14.115Z,1012.69
2018-09-18T02:19:14.713Z,1012.69
2018-09-18T02:19:15.314Z,1012.70
2018-09-18T02:19:15.914Z,1012.70
2018-09-18T02:20:09.968Z,1012.66
2018-09-18T02:20:10.565Z,1012.69
2018-09-18T02:20:11.166Z,1012.70
2018-09-18T02:20:11.765Z,1012.66
2018-09-18T02:20:12.365Z,1012.66
2018-09-18T02:20:12.968Z,1012.66
2018-09-18T02:20:13.565Z,1012.69
2018-09-18T02:21:07.620Z,1012.70
2018-09-18T02:21:08.217Z,1012.66
2018-09-18T02:21:08.817Z,1012.68
2018-09-18T02:21:09.419Z,1012.66
2018-09-18T02:21:10.017Z,1012.68
2018-09-18T02:21:10.616Z,1012.67
2018-09-18T02:21:11.217Z,1012.65
2018-09-18T02:22:05.296Z,1012.66
2018-09-18T02:22:05.870Z,1012.68
2018-09-18T02:22:06.468Z,1012.68
2018-09-18T02:22:07.069Z,1012.65
2018-09-18T02:22:07.669Z,1012.66
2018-09-18T02:22:08.268Z,1012.66
2018-09-18T02:22:08.868Z,1012.68
2018-09-18T02:23:02.924Z,1012.65
2018-09-18T02:23:03.520Z,1012.65
2018-09-18T02:23:04.121Z,1012.66
2018-09-18T02:23:04.722Z,1012.61
2018-09-18T02:23:05.323Z,1012.63
2018-09-18T02:23:05.920Z,1012.64
2018-09-18T02:23:06.519Z,1012.65
2018-09-18T02:24:00.574Z,1012.67
2018-09-18T02:24:01.173Z,1012.62
2018-09-18T02:24:01.773Z,1012.66
2018-09-18T02:24:02.373Z,1012.63
2018-09-18T02:24:02.972Z,1012.64
2018-09-18T02:24:03.574Z,1012.67
2018-09-18T02:24:04.172Z,1012.63
2018-09-18T02:24:58.228Z,1012.64
2018-09-18T02:24:58.831Z,1012.64
2018-09-18T02:24:59.424Z,1012.65
2018-09-18T02:25:00.024Z,1012.66
2018-09-18T02:25:00.624Z,1012.65
2018-09-18T02:25:01.225Z,1012.65
2018-09-18T02:25:01.824Z,1012.65
2018-09-18T02:25:55.879Z,1012.63
2018-09-18T02:25:56.475Z,1012.66
2018-09-18T02:25:57.074Z,1012.61
2018-09-18T02:25:57.676Z,1012.62
2018-09-18T02:25:58.274Z,1012.63
2018-09-18T02:25:58.876Z,1012.60
2018-09-18T02:25:59.474Z,1012.61
2018-09-18T02:26:53.551Z,1012.59
2018-09-18T02:26:54.127Z,1012.64
2018-09-18T02:26:54.728Z,1012.64
2018-09-18T02:26:55.326Z,1012.59
2018-09-18T02:26:55.928Z,1012.59
2018-09-18T02:26:56.527Z,1012.62
2018-09-18T02:26:57.127Z,1012.65
2018-09-18T02:27:51.182Z,1012.63
2018-09-18T02:27:51.779Z,1012.63
2018-09-18T02:27:52.379Z,1012.65
2018-09-18T02:27:52.980Z,1012.65
2018-09-18T02:27:53.579Z,1012.65
2018-09-18T02:27:54.179Z,1012.64
2018-09-18T02:27:54.778Z,1012.61
2018-09-18T02:28:48.834Z,1012.62
2018-09-18T02:28:49.431Z,1012.58
2018-09-18T02:28:50.031Z,1012.62
2018-09-18T02:28:50.630Z,1012.60
2018-09-18T02:28:51.232Z,1012.61
2018-09-18T02:28:51.830Z,1012.62
2018-09-18T02:28:52.430Z,1012.60
2018-09-18T02:29:46.486Z,1012.61
2018-09-18T02:29:47.083Z,1012.63
2018-09-18T02:29:47.683Z,1012.59
2018-09-18T02:29:48.282Z,1012.60
2018-09-18T02:29:48.883Z,1012.60
2018-09-18T02:29:49.484Z,1012.62
2018-09-18T02:29:50.083Z,1012.62
2018-09-18T02:30:44.140Z,1012.61
2018-09-18T02:30:44.734Z,1012.58
2018-09-18T02:30:45.335Z,1012.63
2018-09-18T02:30:45.935Z,1012.60
2018-09-18T02:30:46.534Z,1012.60
2018-09-18T02:30:47.135Z,1012.61
2018-09-18T02:30:47.735Z,1012.63
2018-09-18T02:31:41.789Z,1012.60
2018-09-18T02:31:42.387Z,1012.57
2018-09-18T02:31:42.988Z,1012.61
2018-09-18T02:31:43.587Z,1012.63
2018-09-18T02:31:44.189Z,1012.61
2018-09-18T02:31:44.786Z,1012.63
2018-09-18T02:31:45.386Z,1012.62
2018-09-18T02:32:39.461Z,1012.61
2018-09-18T02:32:40.038Z,1012.63
2018-09-18T02:32:40.638Z,1012.61
2018-09-18T02:32:41.237Z,1012.58
2018-09-18T02:32:41.839Z,1012.63
2018-09-18T02:32:42.439Z,1012.59
2018-09-18T02:32:43.041Z,1012.60
2018-09-18T02:33:37.092Z,1012.60
2018-09-18T02:33:37.690Z,1012.61
2018-09-18T02:33:38.290Z,1012.60
2018-09-18T02:33:38.890Z,1012.58
2018-09-18T02:33:39.489Z,1012.61
2018-09-18T02:33:40.093Z,1012.60
2018-09-18T02:33:40.689Z,1012.61
2018-09-18T02:34:34.745Z,1012.58
2018-09-18T02:34:35.341Z,1012.59
2018-09-18T02:34:35.945Z,1012.57
2018-09-18T02:34:36.544Z,1012.60
2018-09-18T02:34:37.143Z,1012.57
2018-09-18T02:34:37.753Z,1012.60
2018-09-18T02:34:38.339Z,1012.57
2018-09-18T02:35:32.395Z,1012.57
2018-09-18T02:35:32.993Z,1012.55
2018-09-18T02:35:33.593Z,1012.52
2018-09-18T02:35:34.192Z,1012.56
2018-09-18T02:35:34.794Z,1012.52
2018-09-18T02:35:35.392Z,1012.57
2018-09-18T02:35:35.993Z,1012.58
2018-09-18T02:36:30.046Z,1012.58
2018-09-18T02:36:30.644Z,1012.59
2018-09-18T02:36:31.246Z,1012.58
2018-09-18T02:36:31.845Z,1012.55
2018-09-18T02:36:32.444Z,1012.59
2018-09-18T02:36:33.044Z,1012.57
2018-09-18T02:36:33.649Z,1012.56
2018-09-18T02:37:27.729Z,1012.54
2018-09-18T02:37:28.296Z,1012.58
2018-09-18T02:37:28.893Z,1012.55
2018-09-18T02:37:29.495Z,1012.54
2018-09-18T02:37:30.101Z,1012.59
2018-09-18T02:37:30.697Z,1012.56
2018-09-18T02:37:31.295Z,1012.55
2018-09-18T02:38:25.352Z,1012.56
2018-09-18T02:38:25.947Z,1012.53
2018-09-18T02:38:26.550Z,1012.52
2018-09-18T02:38:27.148Z,1012.51
2018-09-18T02:38:27.747Z,1012.51
2018-09-18T02:38:28.349Z,1012.53
2018-09-18T02:38:28.945Z,1012.51
2018-09-18T02:39:23.003Z,1012.57
2018-09-18T02:39:23.599Z,1012.56
2018-09-18T02:39:24.200Z,1012.52
2018-09-18T02:39:24.801Z,1012.54
2018-09-18T02:39:25.400Z,1012.55
2018-09-18T02:39:25.998Z,1012.54
2018-09-18T02:39:26.599Z,1012.51
2018-09-18T02:40:20.653Z,1012.51
2018-09-18T02:40:21.250Z,1012.53
2018-09-18T02:40:21.853Z,1012.51
2018-09-18T02:40:22.450Z,1012.53
2018-09-18T02:40:23.051Z,1012.52
2018-09-18T02:40:23.651Z,1012.52
2018-09-18T02:40:24.250Z,1012.53
2018-09-18T02:41:18.305Z,1012.51
2018-09-18T02:41:18.904Z,1012.51
2018-09-18T02:41:19.502Z,1012.53
2018-09-18T02:41:20.102Z,1012.51
2018-09-18T02:41:20.705Z,1012.52
2018-09-18T02:41:21.302Z,1012.52
2018-09-18T02:41:21.903Z,1012.52
2018-09-18T02:42:15.979Z,1012.52
2018-09-18T02:42:16.553Z,1012.52
2018-09-18T02:42:17.156Z,1012.51
2018-09-18T02:42:17.753Z,1012.54
2018-09-18T02:42:18.354Z,1012.52
2018-09-18T02:42:18.954Z,1012.54
2018-09-18T02:42:19.555Z,1012.51
2018-09-18T02:43:13.609Z,1012.52
2018-09-18T02:43:14.207Z,1012.52
2018-09-18T02:43:14.806Z,1012.52
2018-09-18T02:43:15.407Z,1012.54
2018-09-18T02:43:16.005Z,1012.52
2018-09-18T02:43:16.607Z,1012.49
2018-09-18T02:43:17.206Z,1012.51
2018-09-18T02:44:11.261Z,1012.47
2018-09-18T02:44:11.857Z,1012.47
2018-09-18T02:44:12.462Z,1012.47
2018-09-18T02:44:13.059Z,1012.46
2018-09-18T02:44:13.659Z,1012.51
2018-09-18T02:44:14.258Z,1012.49
2018-09-18T02:44:14.859Z,1012.49
2018-09-18T02:45:08.916Z,1012.50
2018-09-18T02:45:09.511Z,1012.51
2018-09-18T02:45:10.109Z,1012.48
2018-09-18T02:45:10.710Z,1012.48
2018-09-18T02:45:11.310Z,1012.48
2018-09-18T02:45:11.914Z,1012.50
2018-09-18T02:45:12.510Z,1012.51
2018-09-18T02:46:06.568Z,1012.48
2018-09-18T02:46:07.162Z,1012.47
2018-09-18T02:46:07.762Z,1012.46
2018-09-18T02:46:08.361Z,1012.49
2018-09-18T02:46:08.963Z,1012.46
2018-09-18T02:46:09.560Z,1012.48
2018-09-18T02:46:10.161Z,1012.45
2018-09-18T02:47:04.245Z,1012.48
2018-09-18T02:47:04.812Z,1012.47
2018-09-18T02:47:05.415Z,1012.45
2018-09-18T02:47:06.013Z,1012.45
2018-09-18T02:47:06.613Z,1012.47
2018-09-18T02:47:07.221Z,1012.45
2018-09-18T02:47:07.813Z,1012.47
2018-09-18T02:48:01.869Z,1012.44
2018-09-18T02:48:02.467Z,1012.45
2018-09-18T02:48:03.067Z,1012.44
2018-09-18T02:48:03.666Z,1012.44
2018-09-18T02:48:04.265Z,1012.46
2018-09-18T02:48:04.865Z,1012.43
2018-09-18T02:48:05.465Z,1012.46
2018-09-18T02:48:59.520Z,1012.45
2018-09-18T02:49:00.117Z,1012.46
2018-09-18T02:49:00.716Z,1012.45
2018-09-18T02:49:01.319Z,1012.47
2018-09-18T02:49:01.918Z,1012.43
2018-09-18T02:49:02.516Z,1012.47
2018-09-18T02:49:03.121Z,1012.43
2018-09-18T02:49:57.171Z,1012.46
2018-09-18T02:49:57.806Z,1012.49
2018-09-18T02:49:58.368Z,1012.46
2018-09-18T02:49:58.967Z,1012.44
2018-09-18T02:49:59.568Z,1012.46
2018-09-18T02:50:00.168Z,1012.46
2018-09-18T02:50:00.768Z,1012.48
2018-09-18T02:50:54.824Z,1012.42
2018-09-18T02:50:55.421Z,1012.41
2018-09-18T02:50:56.021Z,1012.41
2018-09-18T02:50:56.622Z,1012.43
2018-09-18T02:50:57.219Z,1012.45
2018-09-18T02:50:57.819Z,1012.42
2018-09-18T02:50:58.419Z,1012.43
2018-09-18T02:51:52.475Z,1012.44
2018-09-18T02:51:53.073Z,1012.43
2018-09-18T02:51:53.678Z,1012.39
2018-09-18T02:51:54.271Z,1012.43
2018-09-18T02:51:54.871Z,1012.41
2018-09-18T02:51:55.472Z,1012.43
2018-09-18T02:51:56.070Z,1012.40
2018-09-18T02:52:50.152Z,1012.36
2018-09-18T02:52:50.723Z,1012.44
2018-09-18T02:52:51.324Z,1012.43
2018-09-18T02:52:51.922Z,1012.41
2018-09-18T02:52:52.523Z,1012.41
2018-09-18T02:52:53.126Z,1012.45
2018-09-18T02:52:53.723Z,1012.43
2018-09-18T02:53:47.777Z,1012.40
2018-09-18T02:53:48.375Z,1012.38
2018-09-18T02:53:48.975Z,1012.43
2018-09-18T02:53:49.575Z,1012.42
2018-09-18T02:53:50.175Z,1012.42
2018-09-18T02:53:50.774Z,1012.42
2018-09-18T02:53:51.375Z,1012.39
2018-09-18T02:54:45.429Z,1012.44
2018-09-18T02:54:46.028Z,1012.43
2018-09-18T02:54:46.627Z,1012.46
2018-09-18T02:54:47.227Z,1012.44
2018-09-18T02:54:47.826Z,1012.42
2018-09-18T02:54:48.427Z,1012.43
2018-09-18T02:54:49.027Z,1012.39
2018-09-18T02:55:43.081Z,1012.36
2018-09-18T02:55:43.678Z,1012.41
2018-09-18T02:55:44.278Z,1012.38
2018-09-18T02:55:44.878Z,1012.44
2018-09-18T02:55:45.480Z,1012.40
2018-09-18T02:55:46.079Z,1012.40
2018-09-18T02:55:46.680Z,1012.40
2018-09-18T02:56:40.732Z,1012.40
2018-09-18T02:56:41.334Z,1012.40
2018-09-18T02:56:41.929Z,1012.39
2018-09-18T02:56:42.530Z,1012.39
2018-09-18T02:56:43.131Z,1012.38
2018-09-18T02:56:43.735Z,1012.41
2018-09-18T02:56:44.332Z,1012.41
2018-09-18T02:57:38.406Z,1012.39
2018-09-18T02:57:38.981Z,1012.40
2018-09-18T02:57:39.580Z,1012.38
2018-09-18T02:57:40.181Z,1012.38
2018-09-18T02:57:40.781Z,1012.39
2018-09-18T02:57:41.382Z,1012.39
2018-09-18T02:57:41.981Z,1012.38
2018-09-18T02:58:36.036Z,1012.38
2018-09-18T02:58:36.633Z,1012.38
2018-09-18T02:58:37.234Z,1012.36
2018-09-18T02:58:37.833Z,1012.39
2018-09-18T02:58:38.432Z,1012.36
2018-09-18T02:58:39.033Z,1012.38
2018-09-18T02:58:39.633Z,1012.36
2018-09-18T02:59:33.691Z,1012.34
2018-09-18T02:59:34.286Z,1012.37
2018-09-18T02:59:34.884Z,1012.36
2018-09-18T02:59:35.484Z,1012.39
2018-09-18T02:59:36.084Z,1012.38
2018-09-18T02:59:36.692Z,1012.39
2018-09-18T02:59:37.286Z,1012.35
2018-09-18T03:00:31.341Z,1012.39
2018-09-18T03:00:31.937Z,1012.36
2018-09-18T03:00:32.536Z,1012.36
2018-09-18T03:00:33.137Z,1012.37
2018-09-18T03:00:33.737Z,1012.31
2018-09-18T03:00:34.336Z,1012.36
2018-09-18T03:00:34.936Z,1012.38
2018-09-18T03:01:28.992Z,1012.37
2018-09-18T03:01:29.589Z,1012.35
2018-09-18T03:01:30.188Z,1012.33
2018-09-18T03:01:30.790Z,1012.35
2018-09-18T03:01:31.388Z,1012.37
2018-09-18T03:01:31.988Z,1012.38
2018-09-18T03:01:32.590Z,1012.38
2018-09-18T03:02:26.664Z,1012.37
2018-09-18T03:02:27.240Z,1012.36
2018-09-18T03:02:27.841Z,1012.35
2018-09-18T03:02:28.439Z,1012.34
2018-09-18T03:02:29.043Z,1012.36
2018-09-18T03:02:29.642Z,1012.35
2018-09-18T03:02:30.240Z,1012.36
2018-09-18T03:03:24.295Z,1012.36
2018-09-18T03:03:24.892Z,1012.33
2018-09-18T03:03:25.492Z,1012.33
2018-09-18T03:03:26.091Z,1012.34
2018-09-18T03:03:26.694Z,1012.34
2018-09-18T03:03:27.291Z,1012.35
2018-09-18T03:03:27.892Z,1012.38
2018-09-18T03:04:21.947Z,1012.34
2018-09-18T03:04:22.543Z,1012.35
2018-09-18T03:04:23.142Z,1012.34
2018-09-18T03:04:23.745Z,1012.37
2018-09-18T03:04:24.344Z,1012.37
2018-09-18T03:04:24.943Z,1012.36
2018-09-18T03:04:25.544Z,1012.35
2018-09-18T03:05:19.598Z,1012.39
2018-09-18T03:05:20.196Z,1012.37
2018-09-18T03:05:20.796Z,1012.33
2018-09-18T03:05:21.412Z,1012.37
2018-09-18T03:05:21.996Z,1012.34
2018-09-18T03:05:22.594Z,1012.36
2018-09-18T03:05:23.196Z,1012.33
2018-09-18T03:06:17.250Z,1012.38
2018-09-18T03:06:17.848Z,1012.37
2018-09-18T03:06:18.446Z,1012.36
2018-09-18T03:06:19.046Z,1012.34
2018-09-18T03:06:19.647Z,1012.35
2018-09-18T03:06:20.247Z,1012.34
2018-09-18T03:06:20.847Z,1012.36
2018-09-18T03:07:14.932Z,1012.31
2018-09-18T03:07:15.500Z,1012.31
2018-09-18T03:07:16.098Z,1012.32
2018-09-18T03:07:16.697Z,1012.31
2018-09-18T03:07:17.298Z,1012.32
2018-09-18T03:07:17.901Z,1012.33
2018-09-18T03:07:18.498Z,1012.30
2018-09-18T03:08:12.553Z,1012.33
2018-09-18T03:08:13.151Z,1012.32
2018-09-18T03:08:13.752Z,1012.31
2018-09-18T03:08:14.350Z,1012.33
2018-09-18T03:08:14.954Z,1012.31
2018-09-18T03:08:15.552Z,1012.37
2018-09-18T03:08:16.149Z,1012.34
2018-09-18T03:09:10.208Z,1012.34
2018-09-18T03:09:10.800Z,1012.33
2018-09-18T03:09:11.401Z,1012.33
2018-09-18T03:09:12.001Z,1012.33
2018-09-18T03:09:12.600Z,1012.34
2018-09-18T03:09:13.199Z,1012.34
2018-09-18T03:09:13.802Z,1012.32
2018-09-18T03:10:07.858Z,1012.32
2018-09-18T03:10:08.454Z,1012.29
2018-09-18T03:10:09.054Z,1012.32
2018-09-18T03:10:09.653Z,1012.33
2018-09-18T03:10:10.252Z,1012.30
2018-09-18T03:10:10.853Z,1012.34
2018-09-18T03:10:11.453Z,1012.35
2018-09-18T03:11:05.532Z,1012.29
2018-09-18T03:11:06.138Z,1012.32
2018-09-18T03:11:06.754Z,1012.33
2018-09-18T03:11:07.383Z,1012.34
2018-09-18T03:11:07.968Z,1012.31